sensor_id;sensor_type;location;lat;lon;timestamp;P1;durP1;ratioP1;P2;durP2;ratioP2
5345;SDS011;2695;49.444;11.054;2023-06-19T00:01:21;11.37;;;9.00;;
5345;SDS011;2695;49.444;11.054;2023-06-19T00:03:49;9.27;;;8.10;;
5345;SDS011;2695;49.444;11.054;2023-06-19T00:06:17;11.90;;;8.57;;
5345;SDS011;2695;49.444;11.054;2023-06-19T00:08:45;10.43;;;8.30;;
5345;SDS011;2695;49.444;11.054;2023-06-19T00:11:13;10.33;;;7.83;;
5345;SDS011;2695;49.444;11.054;2023-06-19T00:13:43;9.60;;;8.17;;
5345;SDS011;2695;49.444;11.054;2023-06-19T00:16:11;9.00;;;7.50;;
5345;SDS011;2695;49.444;11.054;2023-06-19T00:18:39;10.80;;;7.90;;
5345;SDS011;2695;49.444;11.054;2023-06-19T00:21:08;11.50;;;8.27;;
5345;SDS011;2695;49.444;11.054;2023-06-19T00:23:38;9.90;;;7.80;;
5345;SDS011;2695;49.444;11.054;2023-06-19T00:26:06;10.17;;;7.90;;
5345;SDS011;2695;49.444;11.054;2023-06-19T00:28:41;9.77;;;7.73;;
5345;SDS011;2695;49.444;11.054;2023-06-19T00:31:12;9.20;;;7.30;;
5345;SDS011;2695;49.444;11.054;2023-06-19T00:33:43;8.17;;;7.37;;
5345;SDS011;2695;49.444;11.054;2023-06-19T00:36:14;9.83;;;8.53;;
5345;SDS011;2695;49.444;11.054;2023-06-19T00:38:49;9.33;;;8.03;;
5345;SDS011;2695;49.444;11.054;2023-06-19T00:41:18;7.80;;;7.00;;
5345;SDS011;2695;49.444;11.054;2023-06-19T00:43:57;9.67;;;7.50;;
5345;SDS011;2695;49.444;11.054;2023-06-19T00:46:27;8.43;;;6.90;;
5345;SDS011;2695;49.444;11.054;2023-06-19T00:48:58;7.40;;;6.47;;
5345;SDS011;2695;49.444;11.054;2023-06-19T00:54:22;9.27;;;8.03;;
5345;SDS011;2695;49.444;11.054;2023-06-19T00:57:03;10.20;;;8.53;;
5345;SDS011;2695;49.444;11.054;2023-06-19T00:59:37;9.00;;;7.60;;
5345;SDS011;2695;49.444;11.054;2023-06-19T01:02:07;9.60;;;7.43;;
5345;SDS011;2695;49.444;11.054;2023-06-19T01:04:37;8.23;;;6.60;;
5345;SDS011;2695;49.444;11.054;2023-06-19T01:07:08;8.27;;;6.70;;
5345;SDS011;2695;49.444;11.054;2023-06-19T01:09:51;8.43;;;6.87;;
5345;SDS011;2695;49.444;11.054;2023-06-19T01:12:27;8.47;;;7.50;;
5345;SDS011;2695;49.444;11.054;2023-06-19T01:15:04;7.57;;;6.77;;
5345;SDS011;2695;49.444;11.054;2023-06-19T01:17:38;9.97;;;7.37;;
5345;SDS011;2695;49.444;11.054;2023-06-19T01:20:19;9.87;;;7.40;;
5345;SDS011;2695;49.444;11.054;2023-06-19T01:22:51;8.53;;;7.17;;
5345;SDS011;2695;49.444;11.054;2023-06-19T01:25:23;8.93;;;6.87;;
5345;SDS011;2695;49.444;11.054;2023-06-19T01:27:58;11.13;;;6.80;;
5345;SDS011;2695;49.444;11.054;2023-06-19T01:30:29;8.70;;;7.07;;
5345;SDS011;2695;49.444;11.054;2023-06-19T01:33:12;9.43;;;7.80;;
5345;SDS011;2695;49.444;11.054;2023-06-19T01:35:54;9.23;;;7.73;;
5345;SDS011;2695;49.444;11.054;2023-06-19T01:38:37;10.73;;;7.47;;
5345;SDS011;2695;49.444;11.054;2023-06-19T01:41:07;9.03;;;7.60;;
5345;SDS011;2695;49.444;11.054;2023-06-19T01:43:37;9.90;;;8.27;;
5345;SDS011;2695;49.444;11.054;2023-06-19T01:46:06;9.80;;;8.30;;
5345;SDS011;2695;49.444;11.054;2023-06-19T01:48:43;9.53;;;7.93;;
5345;SDS011;2695;49.444;11.054;2023-06-19T01:51:17;13.97;;;8.30;;
5345;SDS011;2695;49.444;11.054;2023-06-19T01:53:50;8.90;;;7.57;;
5345;SDS011;2695;49.444;11.054;2023-06-19T01:56:22;8.47;;;7.13;;
5345;SDS011;2695;49.444;11.054;2023-06-19T01:58:53;16.97;;;7.50;;
5345;SDS011;2695;49.444;11.054;2023-06-19T02:01:24;10.80;;;7.63;;
5345;SDS011;2695;49.444;11.054;2023-06-19T02:03:57;12.43;;;8.40;;
5345;SDS011;2695;49.444;11.054;2023-06-19T02:06:29;8.40;;;6.93;;
5345;SDS011;2695;49.444;11.054;2023-06-19T02:09:03;9.50;;;7.93;;
5345;SDS011;2695;49.444;11.054;2023-06-19T02:11:34;9.27;;;8.27;;
5345;SDS011;2695;49.444;11.054;2023-06-19T02:14:14;10.03;;;7.40;;
5345;SDS011;2695;49.444;11.054;2023-06-19T02:16:49;9.00;;;7.70;;
5345;SDS011;2695;49.444;11.054;2023-06-19T02:19:29;9.40;;;7.27;;
5345;SDS011;2695;49.444;11.054;2023-06-19T02:21:59;9.33;;;6.63;;
5345;SDS011;2695;49.444;11.054;2023-06-19T02:24:33;9.43;;;7.40;;
5345;SDS011;2695;49.444;11.054;2023-06-19T02:27:14;12.20;;;8.70;;
5345;SDS011;2695;49.444;11.054;2023-06-19T02:29:53;9.43;;;7.20;;
5345;SDS011;2695;49.444;11.054;2023-06-19T02:32:24;11.50;;;8.60;;
5345;SDS011;2695;49.444;11.054;2023-06-19T02:34:57;11.53;;;8.00;;
5345;SDS011;2695;49.444;11.054;2023-06-19T02:37:25;16.27;;;8.13;;
5345;SDS011;2695;49.444;11.054;2023-06-19T02:40:02;8.40;;;6.70;;
5345;SDS011;2695;49.444;11.054;2023-06-19T02:42:33;10.30;;;7.33;;
5345;SDS011;2695;49.444;11.054;2023-06-19T02:45:01;9.00;;;7.50;;
5345;SDS011;2695;49.444;11.054;2023-06-19T02:47:33;9.30;;;7.70;;
5345;SDS011;2695;49.444;11.054;2023-06-19T02:50:04;10.13;;;7.90;;
5345;SDS011;2695;49.444;11.054;2023-06-19T02:52:34;13.17;;;7.27;;
5345;SDS011;2695;49.444;11.054;2023-06-19T02:55:13;8.33;;;7.43;;
5345;SDS011;2695;49.444;11.054;2023-06-19T02:57:46;12.43;;;7.80;;
5345;SDS011;2695;49.444;11.054;2023-06-19T03:00:16;8.57;;;6.70;;
5345;SDS011;2695;49.444;11.054;2023-06-19T03:02:45;9.77;;;7.80;;
5345;SDS011;2695;49.444;11.054;2023-06-19T03:05:24;12.17;;;8.27;;
5345;SDS011;2695;49.444;11.054;2023-06-19T03:07:58;11.00;;;7.80;;
5345;SDS011;2695;49.444;11.054;2023-06-19T03:10:38;9.73;;;7.77;;
5345;SDS011;2695;49.444;11.054;2023-06-19T03:13:08;10.47;;;7.07;;
5345;SDS011;2695;49.444;11.054;2023-06-19T03:15:39;8.90;;;6.80;;
5345;SDS011;2695;49.444;11.054;2023-06-19T03:18:08;8.57;;;5.87;;
5345;SDS011;2695;49.444;11.054;2023-06-19T03:20:39;10.13;;;6.80;;
5345;SDS011;2695;49.444;11.054;2023-06-19T03:23:09;8.40;;;6.70;;
5345;SDS011;2695;49.444;11.054;2023-06-19T03:25:42;7.73;;;6.30;;
5345;SDS011;2695;49.444;11.054;2023-06-19T03:28:13;8.40;;;6.83;;
5345;SDS011;2695;49.444;11.054;2023-06-19T03:30:44;14.27;;;7.77;;
5345;SDS011;2695;49.444;11.054;2023-06-19T03:33:19;8.03;;;6.90;;
5345;SDS011;2695;49.444;11.054;2023-06-19T03:35:50;9.53;;;7.60;;
5345;SDS011;2695;49.444;11.054;2023-06-19T03:38:23;7.97;;;6.93;;
5345;SDS011;2695;49.444;11.054;2023-06-19T03:40:58;9.73;;;7.20;;
5345;SDS011;2695;49.444;11.054;2023-06-19T03:43:29;10.13;;;7.87;;
5345;SDS011;2695;49.444;11.054;2023-06-19T03:46:02;7.50;;;6.03;;
5345;SDS011;2695;49.444;11.054;2023-06-19T03:48:38;9.37;;;6.87;;
5345;SDS011;2695;49.444;11.054;2023-06-19T03:51:09;9.20;;;7.87;;
5345;SDS011;2695;49.444;11.054;2023-06-19T03:53:42;8.47;;;7.40;;
5345;SDS011;2695;49.444;11.054;2023-06-19T03:56:18;9.10;;;7.40;;
5345;SDS011;2695;49.444;11.054;2023-06-19T03:58:54;8.57;;;7.40;;
5345;SDS011;2695;49.444;11.054;2023-06-19T04:01:23;11.50;;;7.83;;
5345;SDS011;2695;49.444;11.054;2023-06-19T04:03:54;11.80;;;8.60;;
5345;SDS011;2695;49.444;11.054;2023-06-19T04:06:33;11.37;;;8.20;;
5345;SDS011;2695;49.444;11.054;2023-06-19T04:09:03;11.90;;;9.37;;
5345;SDS011;2695;49.444;11.054;2023-06-19T04:11:34;11.13;;;8.47;;
5345;SDS011;2695;49.444;11.054;2023-06-19T04:14:04;10.80;;;7.03;;
5345;SDS011;2695;49.444;11.054;2023-06-19T04:16:34;10.30;;;8.10;;
5345;SDS011;2695;49.444;11.054;2023-06-19T04:19:07;14.17;;;8.93;;
5345;SDS011;2695;49.444;11.054;2023-06-19T04:21:37;9.90;;;8.43;;
5345;SDS011;2695;49.444;11.054;2023-06-19T04:24:08;11.53;;;8.50;;
5345;SDS011;2695;49.444;11.054;2023-06-19T04:26:41;13.77;;;8.50;;
5345;SDS011;2695;49.444;11.054;2023-06-19T04:29:09;16.40;;;9.93;;
5345;SDS011;2695;49.444;11.054;2023-06-19T04:31:46;13.40;;;8.90;;
5345;SDS011;2695;49.444;11.054;2023-06-19T04:34:28;15.80;;;10.37;;
5345;SDS011;2695;49.444;11.054;2023-06-19T04:36:58;15.10;;;8.70;;
5345;SDS011;2695;49.444;11.054;2023-06-19T04:39:28;12.90;;;10.40;;
5345;SDS011;2695;49.444;11.054;2023-06-19T04:42:01;15.73;;;9.03;;
5345;SDS011;2695;49.444;11.054;2023-06-19T04:44:46;14.27;;;9.03;;
5345;SDS011;2695;49.444;11.054;2023-06-19T04:48:32;13.93;;;10.15;;
5345;SDS011;2695;49.444;11.054;2023-06-19T04:51:03;14.77;;;8.45;;
5345;SDS011;2695;49.444;11.054;2023-06-19T04:53:38;15.38;;;9.25;;
5345;SDS011;2695;49.444;11.054;2023-06-19T04:56:11;15.85;;;8.38;;
5345;SDS011;2695;49.444;11.054;2023-06-19T04:58:41;14.55;;;9.80;;
5345;SDS011;2695;49.444;11.054;2023-06-19T05:01:19;14.40;;;9.88;;
5345;SDS011;2695;49.444;11.054;2023-06-19T05:05:01;18.58;;;9.45;;
5345;SDS011;2695;49.444;11.054;2023-06-19T05:07:40;16.25;;;9.30;;
5345;SDS011;2695;49.444;11.054;2023-06-19T05:10:18;14.93;;;10.13;;
5345;SDS011;2695;49.444;11.054;2023-06-19T05:12:48;14.80;;;9.35;;
5345;SDS011;2695;49.444;11.054;2023-06-19T05:15:28;14.73;;;8.77;;
5345;SDS011;2695;49.444;11.054;2023-06-19T05:21:09;11.27;;;8.55;;
5345;SDS011;2695;49.444;11.054;2023-06-19T05:23:38;18.60;;;9.80;;
5345;SDS011;2695;49.444;11.054;2023-06-19T05:26:09;11.63;;;8.40;;
5345;SDS011;2695;49.444;11.054;2023-06-19T05:28:45;10.52;;;8.52;;
5345;SDS011;2695;49.444;11.054;2023-06-19T05:31:25;18.90;;;8.48;;
5345;SDS011;2695;49.444;11.054;2023-06-19T05:34:13;16.10;;;8.05;;
5345;SDS011;2695;49.444;11.054;2023-06-19T05:36:53;12.77;;;8.35;;
5345;SDS011;2695;49.444;11.054;2023-06-19T05:39:34;14.10;;;7.82;;
5345;SDS011;2695;49.444;11.054;2023-06-19T05:42:12;11.25;;;7.72;;
5345;SDS011;2695;49.444;11.054;2023-06-19T05:44:40;12.07;;;7.30;;
5345;SDS011;2695;49.444;11.054;2023-06-19T05:47:26;12.98;;;8.02;;
5345;SDS011;2695;49.444;11.054;2023-06-19T05:50:12;13.20;;;8.30;;
5345;SDS011;2695;49.444;11.054;2023-06-19T05:56:18;15.77;;;7.72;;
5345;SDS011;2695;49.444;11.054;2023-06-19T05:58:46;16.42;;;7.80;;
5345;SDS011;2695;49.444;11.054;2023-06-19T06:01:14;9.75;;;7.65;;
5345;SDS011;2695;49.444;11.054;2023-06-19T06:03:45;10.32;;;7.35;;
5345;SDS011;2695;49.444;11.054;2023-06-19T06:06:13;7.10;;;6.50;;
5345;SDS011;2695;49.444;11.054;2023-06-19T06:08:41;12.35;;;6.97;;
5345;SDS011;2695;49.444;11.054;2023-06-19T06:11:09;8.00;;;7.13;;
5345;SDS011;2695;49.444;11.054;2023-06-19T06:13:38;10.65;;;7.15;;
5345;SDS011;2695;49.444;11.054;2023-06-19T06:16:06;10.88;;;6.70;;
5345;SDS011;2695;49.444;11.054;2023-06-19T06:18:35;8.25;;;6.97;;
5345;SDS011;2695;49.444;11.054;2023-06-19T06:21:04;10.50;;;6.18;;
5345;SDS011;2695;49.444;11.054;2023-06-19T06:23:32;9.55;;;6.70;;
5345;SDS011;2695;49.444;11.054;2023-06-19T06:26:00;12.52;;;6.95;;
5345;SDS011;2695;49.444;11.054;2023-06-19T06:28:29;8.65;;;6.07;;
5345;SDS011;2695;49.444;11.054;2023-06-19T06:30:58;10.05;;;7.07;;
5345;SDS011;2695;49.444;11.054;2023-06-19T06:48:49;8.20;;;6.32;;
5345;SDS011;2695;49.444;11.054;2023-06-19T06:51:27;7.40;;;6.45;;
5345;SDS011;2695;49.444;11.054;2023-06-19T06:54:03;7.57;;;6.05;;
5345;SDS011;2695;49.444;11.054;2023-06-19T06:57:14;7.45;;;5.28;;
5345;SDS011;2695;49.444;11.054;2023-06-19T07:02:59;6.85;;;5.47;;
5345;SDS011;2695;49.444;11.054;2023-06-19T07:06:08;7.18;;;5.60;;
5345;SDS011;2695;49.444;11.054;2023-06-19T07:08:59;10.80;;;5.70;;
5345;SDS011;2695;49.444;11.054;2023-06-19T07:11:35;7.90;;;5.70;;
5345;SDS011;2695;49.444;11.054;2023-06-19T07:14:03;7.22;;;4.93;;
5345;SDS011;2695;49.444;11.054;2023-06-19T07:16:31;6.45;;;4.90;;
5345;SDS011;2695;49.444;11.054;2023-06-19T07:19:01;6.20;;;4.30;;
5345;SDS011;2695;49.444;11.054;2023-06-19T07:21:29;5.97;;;4.65;;
5345;SDS011;2695;49.444;11.054;2023-06-19T07:23:58;4.63;;;4.15;;
5345;SDS011;2695;49.444;11.054;2023-06-19T07:26:27;7.38;;;4.80;;
5345;SDS011;2695;49.444;11.054;2023-06-19T07:28:55;6.32;;;4.50;;
5345;SDS011;2695;49.444;11.054;2023-06-19T07:31:23;5.32;;;4.82;;
5345;SDS011;2695;49.444;11.054;2023-06-19T07:33:51;4.35;;;3.95;;
5345;SDS011;2695;49.444;11.054;2023-06-19T07:36:20;5.32;;;4.47;;
5345;SDS011;2695;49.444;11.054;2023-06-19T07:38:48;6.32;;;4.32;;
5345;SDS011;2695;49.444;11.054;2023-06-19T07:41:16;7.50;;;4.28;;
5345;SDS011;2695;49.444;11.054;2023-06-19T07:43:44;5.55;;;3.70;;
5345;SDS011;2695;49.444;11.054;2023-06-19T07:46:12;5.93;;;5.15;;
5345;SDS011;2695;49.444;11.054;2023-06-19T07:48:41;7.25;;;4.65;;
5345;SDS011;2695;49.444;11.054;2023-06-19T07:51:09;4.63;;;3.90;;
5345;SDS011;2695;49.444;11.054;2023-06-19T07:53:39;11.27;;;4.70;;
5345;SDS011;2695;49.444;11.054;2023-06-19T07:56:07;7.13;;;3.78;;
5345;SDS011;2695;49.444;11.054;2023-06-19T07:58:35;5.28;;;3.95;;
5345;SDS011;2695;49.444;11.054;2023-06-19T08:01:03;5.30;;;3.42;;
5345;SDS011;2695;49.444;11.054;2023-06-19T08:03:31;5.47;;;4.25;;
5345;SDS011;2695;49.444;11.054;2023-06-19T08:06:00;3.78;;;3.22;;
5345;SDS011;2695;49.444;11.054;2023-06-19T08:08:28;6.93;;;3.88;;
5345;SDS011;2695;49.444;11.054;2023-06-19T08:10:57;4.35;;;3.45;;
5345;SDS011;2695;49.444;11.054;2023-06-19T08:13:25;4.15;;;3.28;;
5345;SDS011;2695;49.444;11.054;2023-06-19T08:15:53;3.45;;;3.15;;
5345;SDS011;2695;49.444;11.054;2023-06-19T08:18:21;4.90;;;3.90;;
5345;SDS011;2695;49.444;11.054;2023-06-19T08:20:49;4.25;;;3.72;;
5345;SDS011;2695;49.444;11.054;2023-06-19T08:23:17;5.28;;;4.00;;
5345;SDS011;2695;49.444;11.054;2023-06-19T08:25:45;10.88;;;4.40;;
5345;SDS011;2695;49.444;11.054;2023-06-19T08:28:15;7.63;;;3.50;;
5345;SDS011;2695;49.444;11.054;2023-06-19T08:33:54;3.78;;;3.15;;
5345;SDS011;2695;49.444;11.054;2023-06-19T08:36:22;3.55;;;3.05;;
5345;SDS011;2695;49.444;11.054;2023-06-19T08:38:50;5.85;;;4.95;;
5345;SDS011;2695;49.444;11.054;2023-06-19T08:41:19;5.43;;;2.90;;
5345;SDS011;2695;49.444;11.054;2023-06-19T08:43:48;3.72;;;2.63;;
5345;SDS011;2695;49.444;11.054;2023-06-19T08:46:18;3.35;;;3.05;;
5345;SDS011;2695;49.444;11.054;2023-06-19T08:48:46;6.88;;;3.58;;
5345;SDS011;2695;49.444;11.054;2023-06-19T08:51:14;2.97;;;2.67;;
5345;SDS011;2695;49.444;11.054;2023-06-19T08:53:46;8.30;;;3.17;;
5345;SDS011;2695;49.444;11.054;2023-06-19T08:56:16;3.35;;;3.05;;
5345;SDS011;2695;49.444;11.054;2023-06-19T08:58:44;8.75;;;3.72;;
5345;SDS011;2695;49.444;11.054;2023-06-19T09:01:16;8.57;;;3.80;;
5345;SDS011;2695;49.444;11.054;2023-06-19T09:03:45;3.63;;;2.95;;
5345;SDS011;2695;49.444;11.054;2023-06-19T09:06:19;5.93;;;2.90;;
5345;SDS011;2695;49.444;11.054;2023-06-19T09:08:57;4.22;;;3.25;;
5345;SDS011;2695;49.444;11.054;2023-06-19T09:11:25;3.83;;;3.00;;
5345;SDS011;2695;49.444;11.054;2023-06-19T09:13:56;3.75;;;3.05;;
5345;SDS011;2695;49.444;11.054;2023-06-19T09:16:26;3.45;;;3.00;;
5345;SDS011;2695;49.444;11.054;2023-06-19T09:19:05;4.35;;;3.20;;
5345;SDS011;2695;49.444;11.054;2023-06-19T09:21:35;7.00;;;3.28;;
5345;SDS011;2695;49.444;11.054;2023-06-19T09:24:04;3.00;;;2.80;;
5345;SDS011;2695;49.444;11.054;2023-06-19T09:26:34;4.60;;;3.13;;
5345;SDS011;2695;49.444;11.054;2023-06-19T09:29:12;2.42;;;2.33;;
5345;SDS011;2695;49.444;11.054;2023-06-19T09:31:47;3.50;;;3.20;;
5345;SDS011;2695;49.444;11.054;2023-06-19T09:34:15;3.72;;;2.92;;
5345;SDS011;2695;49.444;11.054;2023-06-19T09:36:43;3.60;;;3.30;;
5345;SDS011;2695;49.444;11.054;2023-06-19T09:39:13;5.45;;;2.63;;
5345;SDS011;2695;49.444;11.054;2023-06-19T09:41:43;3.30;;;3.00;;
5345;SDS011;2695;49.444;11.054;2023-06-19T09:44:18;3.67;;;3.17;;
5345;SDS011;2695;49.444;11.054;2023-06-19T09:46:50;4.22;;;3.00;;
5345;SDS011;2695;49.444;11.054;2023-06-19T09:49:21;3.90;;;3.58;;
5345;SDS011;2695;49.444;11.054;2023-06-19T09:52:08;3.95;;;3.55;;
5345;SDS011;2695;49.444;11.054;2023-06-19T09:54:36;4.13;;;3.35;;
5345;SDS011;2695;49.444;11.054;2023-06-19T09:57:05;3.47;;;3.17;;
5345;SDS011;2695;49.444;11.054;2023-06-19T09:59:34;3.70;;;3.40;;
5345;SDS011;2695;49.444;11.054;2023-06-19T10:02:04;4.60;;;3.60;;
5345;SDS011;2695;49.444;11.054;2023-06-19T10:04:41;4.30;;;3.05;;
5345;SDS011;2695;49.444;11.054;2023-06-19T10:07:18;3.67;;;3.38;;
5345;SDS011;2695;49.444;11.054;2023-06-19T10:09:57;3.35;;;3.05;;
5345;SDS011;2695;49.444;11.054;2023-06-19T10:15:40;3.22;;;2.88;;
5345;SDS011;2695;49.444;11.054;2023-06-19T10:18:14;3.63;;;3.40;;
5345;SDS011;2695;49.444;11.054;2023-06-19T10:20:47;3.83;;;3.00;;
5345;SDS011;2695;49.444;11.054;2023-06-19T10:23:15;3.70;;;3.25;;
5345;SDS011;2695;49.444;11.054;2023-06-19T10:25:55;3.33;;;3.10;;
5345;SDS011;2695;49.444;11.054;2023-06-19T10:28:52;4.63;;;3.92;;
5345;SDS011;2695;49.444;11.054;2023-06-19T10:31:20;3.83;;;3.53;;
5345;SDS011;2695;49.444;11.054;2023-06-19T10:33:50;5.95;;;4.28;;
5345;SDS011;2695;49.444;11.054;2023-06-19T10:36:19;4.25;;;3.85;;
5345;SDS011;2695;49.444;11.054;2023-06-19T10:38:49;3.97;;;3.67;;
5345;SDS011;2695;49.444;11.054;2023-06-19T10:41:17;3.60;;;3.30;;
5345;SDS011;2695;49.444;11.054;2023-06-19T10:43:52;3.92;;;3.63;;
5345;SDS011;2695;49.444;11.054;2023-06-19T10:46:24;3.50;;;3.20;;
5345;SDS011;2695;49.444;11.054;2023-06-19T10:48:58;4.45;;;3.40;;
5345;SDS011;2695;49.444;11.054;2023-06-19T10:51:28;4.97;;;3.85;;
5345;SDS011;2695;49.444;11.054;2023-06-19T10:53:56;4.80;;;4.30;;
5345;SDS011;2695;49.444;11.054;2023-06-19T10:56:24;4.65;;;3.53;;
5345;SDS011;2695;49.444;11.054;2023-06-19T10:58:59;4.72;;;3.22;;
5345;SDS011;2695;49.444;11.054;2023-06-19T11:01:32;4.07;;;3.67;;
5345;SDS011;2695;49.444;11.054;2023-06-19T11:04:06;5.22;;;4.82;;
5345;SDS011;2695;49.444;11.054;2023-06-19T11:06:36;4.97;;;4.50;;
5345;SDS011;2695;49.444;11.054;2023-06-19T11:09:05;7.22;;;5.40;;
5345;SDS011;2695;49.444;11.054;2023-06-19T11:11:34;7.28;;;5.07;;
5345;SDS011;2695;49.444;11.054;2023-06-19T11:17:15;7.97;;;5.07;;
5345;SDS011;2695;49.444;11.054;2023-06-19T11:19:46;4.97;;;4.13;;
5345;SDS011;2695;49.444;11.054;2023-06-19T11:22:14;4.93;;;3.90;;
5345;SDS011;2695;49.444;11.054;2023-06-19T11:24:45;5.07;;;3.83;;
5345;SDS011;2695;49.444;11.054;2023-06-19T11:27:18;9.45;;;3.42;;
5345;SDS011;2695;49.444;11.054;2023-06-19T11:29:54;3.53;;;3.22;;
5345;SDS011;2695;49.444;11.054;2023-06-19T11:35:36;7.25;;;3.63;;
5345;SDS011;2695;49.444;11.054;2023-06-19T11:38:05;3.47;;;3.05;;
5345;SDS011;2695;49.444;11.054;2023-06-19T11:40:40;5.72;;;4.03;;
5345;SDS011;2695;49.444;11.054;2023-06-19T11:43:08;4.68;;;3.67;;
5345;SDS011;2695;49.444;11.054;2023-06-19T11:45:44;3.70;;;3.40;;
5345;SDS011;2695;49.444;11.054;2023-06-19T11:48:13;4.43;;;3.78;;
5345;SDS011;2695;49.444;11.054;2023-06-19T11:50:43;4.10;;;3.45;;
5345;SDS011;2695;49.444;11.054;2023-06-19T11:53:17;4.70;;;4.13;;
5345;SDS011;2695;49.444;11.054;2023-06-19T11:55:45;4.88;;;4.03;;
5345;SDS011;2695;49.444;11.054;2023-06-19T11:58:13;5.28;;;4.47;;
5345;SDS011;2695;49.444;11.054;2023-06-19T12:00:42;4.32;;;3.92;;
5345;SDS011;2695;49.444;11.054;2023-06-19T12:03:19;4.47;;;3.92;;
5345;SDS011;2695;49.444;11.054;2023-06-19T12:05:49;4.50;;;4.18;;
5345;SDS011;2695;49.444;11.054;2023-06-19T12:08:17;5.80;;;4.35;;
5345;SDS011;2695;49.444;11.054;2023-06-19T12:10:45;5.20;;;4.70;;
5345;SDS011;2695;49.444;11.054;2023-06-19T12:13:13;4.57;;;3.70;;
5345;SDS011;2695;49.444;11.054;2023-06-19T12:15:41;7.78;;;4.07;;
5345;SDS011;2695;49.444;11.054;2023-06-19T12:18:10;4.50;;;4.10;;
5345;SDS011;2695;49.444;11.054;2023-06-19T12:20:39;4.45;;;4.03;;
5345;SDS011;2695;49.444;11.054;2023-06-19T12:23:08;5.35;;;3.60;;
5345;SDS011;2695;49.444;11.054;2023-06-19T12:25:36;5.32;;;3.97;;
5345;SDS011;2695;49.444;11.054;2023-06-19T12:28:05;6.55;;;4.70;;
5345;SDS011;2695;49.444;11.054;2023-06-19T12:30:34;4.75;;;4.25;;
5345;SDS011;2695;49.444;11.054;2023-06-19T12:33:03;6.38;;;4.20;;
5345;SDS011;2695;49.444;11.054;2023-06-19T12:35:32;5.05;;;4.20;;
5345;SDS011;2695;49.444;11.054;2023-06-19T12:38:00;8.45;;;4.57;;
5345;SDS011;2695;49.444;11.054;2023-06-19T12:40:33;7.30;;;4.50;;
5345;SDS011;2695;49.444;11.054;2023-06-19T12:43:01;5.72;;;4.75;;
5345;SDS011;2695;49.444;11.054;2023-06-19T12:45:36;5.95;;;5.03;;
5345;SDS011;2695;49.444;11.054;2023-06-19T12:48:04;5.03;;;4.53;;
5345;SDS011;2695;49.444;11.054;2023-06-19T12:50:32;5.25;;;4.63;;
5345;SDS011;2695;49.444;11.054;2023-06-19T12:53:00;8.00;;;5.28;;
5345;SDS011;2695;49.444;11.054;2023-06-19T12:55:29;4.13;;;3.83;;
5345;SDS011;2695;49.444;11.054;2023-06-19T12:57:58;5.40;;;4.65;;
5345;SDS011;2695;49.444;11.054;2023-06-19T13:00:26;6.47;;;5.40;;
5345;SDS011;2695;49.444;11.054;2023-06-19T13:02:54;5.95;;;4.72;;
5345;SDS011;2695;49.444;11.054;2023-06-19T13:05:22;4.93;;;4.53;;
5345;SDS011;2695;49.444;11.054;2023-06-19T13:07:50;5.38;;;4.88;;
5345;SDS011;2695;49.444;11.054;2023-06-19T13:10:27;4.80;;;4.30;;
5345;SDS011;2695;49.444;11.054;2023-06-19T13:12:56;4.35;;;3.67;;
5345;SDS011;2695;49.444;11.054;2023-06-19T13:15:26;4.25;;;3.85;;
5345;SDS011;2695;49.444;11.054;2023-06-19T13:17:54;9.40;;;4.53;;
5345;SDS011;2695;49.444;11.054;2023-06-19T13:20:22;5.28;;;4.00;;
5345;SDS011;2695;49.444;11.054;2023-06-19T13:22:51;5.05;;;4.07;;
5345;SDS011;2695;49.444;11.054;2023-06-19T13:25:19;4.93;;;4.38;;
5345;SDS011;2695;49.444;11.054;2023-06-19T13:27:48;4.45;;;4.10;;
5345;SDS011;2695;49.444;11.054;2023-06-19T13:30:16;10.55;;;4.47;;
5345;SDS011;2695;49.444;11.054;2023-06-19T13:32:45;5.22;;;4.38;;
5345;SDS011;2695;49.444;11.054;2023-06-19T13:35:13;5.15;;;4.75;;
5345;SDS011;2695;49.444;11.054;2023-06-19T13:37:41;4.20;;;3.80;;
5345;SDS011;2695;49.444;11.054;2023-06-19T13:40:09;4.97;;;4.10;;
5345;SDS011;2695;49.444;11.054;2023-06-19T13:42:50;9.80;;;4.38;;
5345;SDS011;2695;49.444;11.054;2023-06-19T13:45:18;7.30;;;4.60;;
5345;SDS011;2695;49.444;11.054;2023-06-19T13:47:47;14.70;;;4.72;;
5345;SDS011;2695;49.444;11.054;2023-06-19T13:50:15;6.55;;;4.30;;
5345;SDS011;2695;49.444;11.054;2023-06-19T13:52:45;4.28;;;3.83;;
5345;SDS011;2695;49.444;11.054;2023-06-19T13:55:27;4.53;;;4.13;;
5345;SDS011;2695;49.444;11.054;2023-06-19T13:57:57;6.72;;;4.45;;
5345;SDS011;2695;49.444;11.054;2023-06-19T14:00:25;4.90;;;3.65;;
5345;SDS011;2695;49.444;11.054;2023-06-19T14:02:55;5.55;;;4.75;;
5345;SDS011;2695;49.444;11.054;2023-06-19T14:05:23;5.82;;;4.05;;
5345;SDS011;2695;49.444;11.054;2023-06-19T14:07:58;8.02;;;4.55;;
5345;SDS011;2695;49.444;11.054;2023-06-19T14:10:28;4.82;;;4.43;;
5345;SDS011;2695;49.444;11.054;2023-06-19T14:12:56;11.13;;;4.43;;
5345;SDS011;2695;49.444;11.054;2023-06-19T14:15:24;7.63;;;4.13;;
5345;SDS011;2695;49.444;11.054;2023-06-19T14:17:52;3.60;;;3.28;;
5345;SDS011;2695;49.444;11.054;2023-06-19T14:20:21;6.05;;;4.22;;
5345;SDS011;2695;49.444;11.054;2023-06-19T14:22:50;8.20;;;4.07;;
5345;SDS011;2695;49.444;11.054;2023-06-19T14:25:18;5.00;;;3.70;;
5345;SDS011;2695;49.444;11.054;2023-06-19T14:27:46;3.53;;;3.22;;
5345;SDS011;2695;49.444;11.054;2023-06-19T14:30:14;4.60;;;2.40;;
5345;SDS011;2695;49.444;11.054;2023-06-19T14:32:42;4.70;;;3.08;;
5345;SDS011;2695;49.444;11.054;2023-06-19T14:35:11;4.13;;;3.72;;
5345;SDS011;2695;49.444;11.054;2023-06-19T14:37:40;6.75;;;3.50;;
5345;SDS011;2695;49.444;11.054;2023-06-19T14:40:09;4.25;;;3.70;;
5345;SDS011;2695;49.444;11.054;2023-06-19T14:42:38;6.43;;;3.80;;
5345;SDS011;2695;49.444;11.054;2023-06-19T14:45:07;5.28;;;3.40;;
5345;SDS011;2695;49.444;11.054;2023-06-19T14:47:35;3.75;;;3.45;;
5345;SDS011;2695;49.444;11.054;2023-06-19T14:50:04;3.80;;;3.50;;
5345;SDS011;2695;49.444;11.054;2023-06-19T14:52:33;5.20;;;3.25;;
5345;SDS011;2695;49.444;11.054;2023-06-19T14:55:02;9.65;;;3.90;;
5345;SDS011;2695;49.444;11.054;2023-06-19T14:57:31;5.28;;;3.78;;
5345;SDS011;2695;49.444;11.054;2023-06-19T14:59:59;6.63;;;4.93;;
5345;SDS011;2695;49.444;11.054;2023-06-19T15:02:28;7.63;;;5.13;;
5345;SDS011;2695;49.444;11.054;2023-06-19T15:04:56;4.80;;;3.77;;
5345;SDS011;2695;49.444;11.054;2023-06-19T15:07:31;5.60;;;4.20;;
5345;SDS011;2695;49.444;11.054;2023-06-19T15:10:00;9.53;;;6.53;;
5345;SDS011;2695;49.444;11.054;2023-06-19T15:12:30;8.60;;;4.87;;
5345;SDS011;2695;49.444;11.054;2023-06-19T15:15:00;11.13;;;6.20;;
5345;SDS011;2695;49.444;11.054;2023-06-19T15:17:29;7.43;;;5.10;;
5345;SDS011;2695;49.444;11.054;2023-06-19T15:19:57;9.10;;;5.27;;
5345;SDS011;2695;49.444;11.054;2023-06-19T15:22:25;8.87;;;5.40;;
5345;SDS011;2695;49.444;11.054;2023-06-19T15:28:36;8.13;;;5.70;;
5345;SDS011;2695;49.444;11.054;2023-06-19T15:31:04;11.93;;;6.60;;
5345;SDS011;2695;49.444;11.054;2023-06-19T15:33:33;8.53;;;5.60;;
5345;SDS011;2695;49.444;11.054;2023-06-19T15:36:01;9.60;;;6.17;;
5345;SDS011;2695;49.444;11.054;2023-06-19T15:38:45;11.03;;;6.30;;
5345;SDS011;2695;49.444;11.054;2023-06-19T15:41:13;10.80;;;7.00;;
5345;SDS011;2695;49.444;11.054;2023-06-19T15:43:43;7.47;;;5.70;;
5345;SDS011;2695;49.444;11.054;2023-06-19T15:46:11;10.37;;;6.93;;
5345;SDS011;2695;49.444;11.054;2023-06-19T15:48:41;7.53;;;5.80;;
5345;SDS011;2695;49.444;11.054;2023-06-19T15:54:15;9.40;;;6.37;;
5345;SDS011;2695;49.444;11.054;2023-06-19T15:59:33;9.70;;;6.63;;
5345;SDS011;2695;49.444;11.054;2023-06-19T16:02:02;8.63;;;6.03;;
5345;SDS011;2695;49.444;11.054;2023-06-19T16:04:30;5.88;;;5.30;;
5345;SDS011;2695;49.444;11.054;2023-06-19T16:06:58;9.40;;;5.80;;
5345;SDS011;2695;49.444;11.054;2023-06-19T16:09:27;9.82;;;5.30;;
5345;SDS011;2695;49.444;11.054;2023-06-19T16:12:05;8.57;;;6.63;;
5345;SDS011;2695;49.444;11.054;2023-06-19T16:14:35;11.23;;;6.32;;
5345;SDS011;2695;49.444;11.054;2023-06-19T16:17:03;7.80;;;5.18;;